Time;durP1;ratioP1;P1;durP2;ratioP2;P2;SDS_P1;SDS_P2;PMS_P1;PMS_P2;Temp;Humidity;BMP_temperature;BMP_pressure;BME280_temperature;BME280_humidity;BME280_pressure;Samples;Min_cycle;Max_cycle;Signal;HPM_P1;HPM_P2
2023/08/14 00:02:14;;;;;;;6.83;3.00;;;;;;;21.53;88.36;100919.73;5213555;55;1140861;-65
2023/08/14 00:07:20;;;;;;;8.45;3.12;;;;;;;21.56;87.98;100900.50;5279224;54;1138668;-65
2023/08/14 00:12:26;;;;;;;6.28;3.00;;;;;;;21.54;87.31;100910.09;5279116;54;1138776;-65
2023/08/14 00:17:31;;;;;;;8.05;3.00;;;;;;;21.53;87.03;100913.00;5200161;55;1138767;-65
2023/08/14 00:22:37;;;;;;;11.88;3.77;;;;;;;21.52;86.92;100918.89;5286359;54;1138949;-65
2023/08/14 00:27:42;;;;;;;8.70;3.22;;;;;;;21.57;87.28;100912.95;5278782;54;1140766;-64
2023/08/14 00:32:48;;;;;;;10.85;3.20;;;;;;;21.57;86.85;100916.98;5279178;54;1138787;-65
2023/08/14 00:37:54;;;;;;;7.80;3.08;;;;;;;21.50;85.75;100918.73;5298619;55;1140828;-64
2023/08/14 00:42:59;;;;;;;10.05;3.45;;;;;;;21.41;85.24;100917.44;5278874;54;1138806;-65
2023/08/14 00:48:06;;;;;;;7.45;3.00;;;;;;;21.49;85.50;100921.10;5262977;54;1140835;-65
2023/08/14 00:53:14;;;;;;;10.23;3.62;;;;;;;21.57;85.45;100911.09;5133108;55;1138700;-65
2023/08/14 00:58:20;;;;;;;5.37;2.83;;;;;;;21.65;85.43;100922.31;5112486;55;1140919;-65
2023/08/14 01:03:26;;;;;;;11.30;2.92;;;;;;;21.69;85.42;100916.91;5278687;54;1139077;-65
2023/08/14 01:08:34;;;;;;;10.20;3.70;;;;;;;21.65;83.35;100912.38;5278751;54;1141102;-65
2023/08/14 01:13:56;;;;;;;11.18;3.25;;;;;;;21.57;81.86;100905.70;5202934;54;1140859;-65
2023/08/14 01:19:06;;;;;;;6.92;3.20;;;;;;;21.50;81.82;100907.47;5168004;55;1148691;-64
2023/08/14 01:24:41;;;;;;;10.32;3.08;;;;;;;21.41;81.50;100923.33;5168912;55;1138800;-66
2023/08/14 01:30:01;;;;;;;7.80;3.47;;;;;;;21.36;81.94;100917.16;5167882;55;1140964;-66
2023/08/14 01:35:07;;;;;;;6.08;3.10;;;;;;;21.31;81.98;100922.23;5187989;55;1138812;-65
2023/08/14 01:40:23;;;;;;;10.75;3.55;;;;;;;21.26;82.28;100921.92;5167238;55;1138962;-65
2023/08/14 01:45:31;;;;;;;16.25;3.08;;;;;;;21.23;82.58;100914.73;5162510;55;1140701;-65
2023/08/14 01:50:40;;;;;;;8.55;3.77;;;;;;;21.20;82.69;100918.62;5229174;54;1140830;-64
2023/08/14 01:55:46;;;;;;;6.95;3.75;;;;;;;21.18;82.70;100920.61;5278102;54;1138949;-65
2023/08/14 02:00:53;;;;;;;9.57;3.65;;;;;;;21.19;82.63;100923.66;5277731;54;1147291;-65
2023/08/14 02:05:58;;;;;;;6.60;3.13;;;;;;;21.19;82.48;100926.36;5241154;54;1138633;-65
2023/08/14 02:11:09;;;;;;;6.75;3.67;;;;;;;21.21;82.57;100915.42;5274173;54;1138767;-65
2023/08/14 02:16:15;;;;;;;7.62;3.02;;;;;;;21.22;82.72;100921.97;5169104;55;1138875;-65
2023/08/14 02:21:20;;;;;;;18.48;4.45;;;;;;;21.20;82.70;100929.38;5235957;54;1138916;-66
2023/08/14 02:26:26;;;;;;;13.83;3.58;;;;;;;20.96;87.08;100936.19;5257626;54;1140985;-65
2023/08/14 02:31:31;;;;;;;8.23;3.10;;;;;;;20.96;87.08;100936.19;5267460;54;1140977;-64
2023/08/14 02:36:37;;;;;;;11.28;3.30;;;;;;;20.68;88.60;100955.48;5287621;54;1138680;-64
2023/08/14 02:41:43;;;;;;;9.15;3.60;;;;;;;20.49;91.79;100977.88;5313978;54;1140987;-65
2023/08/14 02:46:49;;;;;;;11.57;3.12;;;;;;;19.99;96.66;100991.88;5277557;54;1138821;-64
2023/08/14 02:51:54;;;;;;;9.68;3.47;;;;;;;19.75;97.95;101003.94;5184389;55;1141163;-67
2023/08/14 02:57:00;;;;;;;10.50;3.80;;;;;;;19.75;100.00;101005.28;5161077;55;1138719;-64
2023/08/14 03:02:06;;;;;;;16.42;4.72;;;;;;;19.99;100.00;100993.22;5187603;55;1142826;-65
2023/08/14 03:07:11;;;;;;;7.42;3.50;;;;;;;20.03;100.00;100988.33;5167997;54;1142803;-66
2023/08/14 03:12:17;;;;;;;10.45;3.87;;;;;;;19.91;100.00;100966.86;5267988;54;1140751;-66
2023/08/14 03:17:22;;;;;;;13.45;5.08;;;;;;;19.99;100.00;100965.53;5387837;54;1143113;-67
2023/08/14 03:22:28;;;;;;;8.45;4.58;;;;;;;19.90;100.00;100949.08;5155989;55;1143082;-65
2023/08/14 03:27:34;;;;;;;12.07;5.60;;;;;;;19.73;100.00;100959.48;5209045;55;1140914;-65
2023/08/14 03:32:39;;;;;;;11.86;4.42;;;;;;;19.76;100.00;100945.23;5183489;55;1142982;-66
2023/08/14 03:37:45;;;;;;;9.25;5.08;;;;;;;19.78;100.00;100940.53;5162766;55;1142887;-65
2023/08/14 03:42:51;;;;;;;10.00;3.98;;;;;;;19.81;100.00;100933.99;5168620;55;1140776;-66
2023/08/14 03:47:56;;;;;;;5.97;3.37;;;;;;;19.78;100.00;100935.16;5199910;55;1222845;-65
2023/08/14 03:53:02;;;;;;;7.90;3.52;;;;;;;19.71;100.00;100932.00;5257315;55;1140926;-65
2023/08/14 03:58:08;;;;;;;6.37;3.30;;;;;;;19.63;100.00;100926.11;5168900;55;1140755;-65
2023/08/14 04:03:13;;;;;;;8.35;4.03;;;;;;;19.67;100.00;100931.48;5299752;54;1140979;-64
2023/08/14 04:08:19;;;;;;;8.28;3.85;;;;;;;19.68;100.00;100935.84;5189243;55;1141001;-66
2023/08/14 04:13:28;;;;;;;5.67;2.90;;;;;;;19.74;100.00;100933.81;5259039;54;1140913;-64
2023/08/14 04:18:34;;;;;;;8.27;3.43;;;;;;;19.79;100.00;100939.53;5250019;54;1140742;-65
2023/08/14 04:23:40;;;;;;;5.28;3.40;;;;;;;19.81;100.00;100932.16;5152609;55;1140755;-64
2023/08/14 04:28:45;;;;;;;6.83;3.40;;;;;;;19.79;100.00;100928.80;5131700;55;1140740;-65
2023/08/14 04:33:51;;;;;;;10.28;2.95;;;;;;;19.87;100.00;100938.17;5132489;56;1140906;-65
2023/08/14 04:38:59;;;;;;;4.65;2.85;;;;;;;19.94;100.00;100937.00;5158567;55;1142796;-65
2023/08/14 04:44:05;;;;;;;5.47;2.90;;;;;;;20.05;100.00;100939.83;5127758;55;1140956;-65
2023/08/14 04:49:11;;;;;;;7.08;2.70;;;;;;;20.11;100.00;100941.34;5227786;54;1140788;-65
2023/08/14 04:54:17;;;;;;;4.45;2.62;;;;;;;20.15;100.00;100929.77;5231148;54;1140897;-65
2023/08/14 04:59:23;;;;;;;4.85;2.90;;;;;;;20.11;100.00;100929.26;5184821;55;1140741;-64
2023/08/14 05:04:30;;;;;;;7.70;2.95;;;;;;;20.09;100.00;100921.87;5188862;55;1140785;-64
2023/08/14 05:09:36;;;;;;;5.60;3.20;;;;;;;20.12;100.00;100915.33;5190380;55;1140749;-64
2023/08/14 05:14:42;;;;;;;6.33;3.67;;;;;;;20.15;100.00;100913.65;5298893;55;1140957;-66
2023/08/14 05:19:47;;;;;;;3.85;2.30;;;;;;;20.25;100.00;100920.50;5299660;54;1140982;-65
2023/08/14 05:24:53;;;;;;;3.27;2.72;;;;;;;20.34;100.00;100915.42;5277233;54;1140907;-65
2023/08/14 05:30:00;;;;;;;6.87;2.60;;;;;;;20.45;100.00;100908.89;5314724;54;1140971;-66
2023/08/14 05:35:06;;;;;;;3.42;2.77;;;;;;;20.62;100.00;100904.29;5272750;54;1140658;-66
2023/08/14 05:40:13;;;;;;;6.40;2.92;;;;;;;20.85;100.00;100909.20;5272072;54;1140705;-66
2023/08/14 05:45:18;;;;;;;3.42;2.37;;;;;;;21.11;100.00;100902.66;5239065;54;1140920;-66
2023/08/14 05:50:25;;;;;;;6.25;2.22;;;;;;;21.36;100.00;100892.11;5124290;55;1140688;-65
2023/08/14 05:55:35;;;;;;;4.33;2.33;;;;;;;21.55;100.00;100879.48;5212762;54;1140911;-65
2023/08/14 06:00:41;;;;;;;2.77;2.27;;;;;;;21.77;100.00;100875.09;5212302;55;1140570;-66
2023/08/14 06:05:47;;;;;;;3.20;2.12;;;;;;;22.02;100.00;100875.19;5224767;54;1140853;-65
2023/08/14 06:10:53;;;;;;;4.90;1.78;;;;;;;22.26;100.00;100882.17;5114316;55;1140812;-66
2023/08/14 06:15:58;;;;;;;2.35;2.15;;;;;;;22.42;100.00;100879.29;5292975;54;1140854;-66
2023/08/14 06:21:04;;;;;;;7.05;1.82;;;;;;;22.64;100.00;100882.03;5269389;54;1140938;-65
2023/08/14 06:26:10;;;;;;;3.15;2.05;;;;;;;22.90;100.00;100884.27;5255784;54;1140887;-65
2023/08/14 06:31:15;;;;;;;3.45;2.47;;;;;;;23.05;100.00;100891.80;5132385;56;1140997;-65
2023/08/14 06:36:21;;;;;;;5.65;2.37;;;;;;;23.20;100.00;100888.53;5168552;54;1140825;-66
2023/08/14 06:41:27;;;;;;;3.42;2.85;;;;;;;23.41;100.00;100884.97;5130794;56;1140881;-66
2023/08/14 06:46:33;;;;;;;4.13;2.40;;;;;;;23.59;100.00;100883.20;5252445;54;1140914;-65
2023/08/14 06:51:40;;;;;;;4.72;2.10;;;;;;;23.80;100.00;100885.88;5286903;54;1140738;-66
2023/08/14 06:56:46;;;;;;;2.45;2.25;;;;;;;23.98;100.00;100890.79;5299636;54;1140918;-65
2023/08/14 07:01:51;;;;;;;2.10;2.00;;;;;;;24.03;100.00;100891.01;5278945;54;1140763;-66
2023/08/14 07:06:57;;;;;;;6.10;2.47;;;;;;;24.13;100.00;100894.22;5300125;55;1140696;-65
2023/08/14 07:12:03;;;;;;;3.30;2.17;;;;;;;24.26;96.45;100897.02;5274631;54;1140995;-65
2023/08/14 07:17:10;;;;;;;4.92;2.20;;;;;;;24.38;96.26;100888.66;5136235;56;1138793;-66
2023/08/14 07:22:15;;;;;;;3.06;1.94;;;;;;;24.60;92.75;100894.78;5119349;56;1139046;-66
2023/08/14 07:27:21;;;;;;;4.17;2.50;;;;;;;24.68;88.77;100903.26;5022547;56;1138946;-65
2023/08/14 07:32:26;;;;;;;8.13;2.80;;;;;;;24.72;87.13;100899.95;5249418;54;1139000;-65
2023/08/14 07:37:32;;;;;;;5.57;2.70;;;;;;;24.76;86.06;100917.44;5164198;55;1138911;-65
2023/08/14 07:42:38;;;;;;;2.75;2.42;;;;;;;24.88;87.47;100916.36;5205685;55;1138635;-64
2023/08/14 07:47:43;;;;;;;9.15;2.83;;;;;;;25.06;87.25;100907.67;5180239;54;1138784;-65
2023/08/14 07:52:51;;;;;;;6.87;3.15;;;;;;;25.19;85.51;100912.63;5244430;54;1138958;-66
2023/08/14 07:57:57;;;;;;;7.03;2.83;;;;;;;25.32;87.32;100905.56;5269979;54;1138945;-66
2023/08/14 08:03:03;;;;;;;9.30;3.15;;;;;;;25.48;85.14;100910.59;5246178;54;1138749;-65
2023/08/14 08:08:09;;;;;;;9.10;3.40;;;;;;;25.57;84.53;100908.81;5238744;54;1138854;-65
2023/08/14 08:13:14;;;;;;;8.73;2.77;;;;;;;25.64;84.71;100906.16;5240112;54;1138678;-65
2023/08/14 08:18:20;;;;;;;6.45;2.92;;;;;;;25.76;86.59;100905.83;5185288;54;1138750;-65
2023/08/14 08:23:31;;;;;;;3.23;2.90;;;;;;;26.01;87.47;100902.47;5245767;54;1138709;-66
2023/08/14 08:28:37;;;;;;;14.73;3.85;;;;;;;26.13;86.28;100904.31;5127362;56;1139246;-66
2023/08/14 08:33:42;;;;;;;5.12;2.80;;;;;;;26.27;85.80;100914.13;5298396;54;1140750;-66
2023/08/14 08:38:49;;;;;;;10.03;3.22;;;;;;;26.16;85.86;100917.45;5263063;55;1139003;-66
2023/08/14 08:44:20;;;;;;;7.87;3.77;;;;;;;26.07;87.01;100918.73;5233369;54;1140925;-66
2023/08/14 08:49:27;;;;;;;3.50;3.22;;;;;;;26.24;85.87;100915.06;5188034;55;1138919;-67
2023/08/14 08:54:33;;;;;;;14.40;3.90;;;;;;;26.34;87.71;100908.70;5182373;55;1138770;-66
2023/08/14 08:59:41;;;;;;;11.48;3.62;;;;;;;26.42;87.35;100909.00;5225078;54;1141167;-66
2023/08/14 09:04:47;;;;;;;3.83;3.40;;;;;;;26.56;87.32;100907.39;5199177;54;1140764;-66
2023/08/14 09:09:52;;;;;;;5.67;3.58;;;;;;;26.75;86.78;100904.27;5109426;55;1138695;-66
2023/08/14 09:15:08;;;;;;;6.75;3.60;;;;;;;26.93;84.95;100907.63;5235994;54;1138679;-66
2023/08/14 09:20:15;;;;;;;8.35;3.80;;;;;;;27.06;85.04;100892.65;5199650;55;1138842;-68
2023/08/14 09:25:21;;;;;;;3.10;2.87;;;;;;;27.20;85.35;100890.16;5203761;55;1138897;-66
2023/08/14 09:30:27;;;;;;;6.33;3.37;;;;;;;27.36;84.45;100884.72;5102343;56;1138867;-66
2023/08/14 09:35:33;;;;;;;6.43;3.97;;;;;;;27.51;84.65;100881.16;5188673;55;1138668;-66
2023/08/14 09:40:38;;;;;;;8.30;3.85;;;;;;;27.73;82.79;100875.38;5275476;54;1138894;-66
2023/08/14 09:45:45;;;;;;;4.42;4.03;;;;;;;27.91;82.72;100874.06;5299330;54;1138574;-66
2023/08/14 09:50:53;;;;;;;6.75;3.47;;;;;;;27.95;81.62;100874.76;5250351;54;1138691;-66
2023/08/14 09:56:01;;;;;;;5.00;3.33;;;;;;;28.07;82.80;100884.36;5246835;54;1138589;-66
2023/08/14 10:01:07;;;;;;;6.05;3.65;;;;;;;28.28;80.48;100882.58;5023702;57;1138991;-66
2023/08/14 10:06:14;;;;;;;4.62;3.25;;;;;;;28.44;81.06;100881.66;4966864;56;1138937;-66
2023/08/14 10:11:20;;;;;;;3.80;3.44;;;;;;;28.41;81.70;100887.06;5007476;56;1148025;-67
2023/08/14 10:16:38;;;;;;;3.67;3.15;;;;;;;28.63;79.56;100886.05;5190160;55;1138771;-68
2023/08/14 10:21:44;;;;;;;4.65;3.10;;;;;;;28.88;81.24;100883.22;5197812;55;1138695;-67
2023/08/14 10:26:50;;;;;;;6.25;2.85;;;;;;;28.99;76.72;100891.99;5136191;55;1138650;-66
2023/08/14 10:31:56;;;;;;;6.30;3.12;;;;;;;29.15;77.21;100891.34;5145649;55;1138616;-64
2023/08/14 10:37:01;;;;;;;3.62;3.02;;;;;;;29.27;75.65;100890.01;5152912;55;1138892;-64
2023/08/14 10:42:08;;;;;;;8.28;3.00;;;;;;;29.31;74.30;100878.95;5072550;55;1138902;-65
2023/08/14 10:47:14;;;;;;;4.58;3.00;;;;;;;29.31;74.29;100869.42;5026379;55;1138891;-65
2023/08/14 10:52:20;;;;;;;6.04;2.56;;;;;;;29.52;74.55;100867.51;5156212;55;1138919;-64
2023/08/14 10:57:31;;;;;;;5.30;2.83;;;;;;;29.72;71.61;100874.83;5077125;54;1138821;-64
2023/08/14 11:02:41;;;;;;;3.50;3.20;;;;;;;29.71;70.46;100868.24;5134169;54;1138780;-64
2023/08/14 11:08:01;;;;;;;4.10;2.72;;;;;;;29.79;70.22;100869.23;5154359;54;1138827;-65
2023/08/14 11:13:08;;;;;;;4.67;2.45;;;;;;;29.98;69.03;100865.90;5133391;54;1138678;-65
2023/08/14 11:18:14;;;;;;;2.65;2.40;;;;;;;29.91;66.85;100862.45;5200530;55;1138777;-64
2023/08/14 11:23:19;;;;;;;4.75;2.62;;;;;;;29.87;64.44;100863.98;5275513;54;1139079;-64
2023/08/14 11:28:25;;;;;;;5.10;2.40;;;;;;;29.73;66.33;100866.11;5276661;54;1204409;-64
2023/08/14 11:33:32;;;;;;;5.07;1.90;;;;;;;29.75;66.75;100863.98;5166627;55;1138655;-64
2023/08/14 11:38:37;;;;;;;3.17;2.50;;;;;;;29.93;61.24;100853.50;5145551;56;1138842;-65
2023/08/14 11:43:45;;;;;;;3.30;2.08;;;;;;;29.91;58.85;100855.09;5189558;54;1138686;-64
2023/08/14 11:48:50;;;;;;;3.27;2.62;;;;;;;30.12;59.71;100863.21;5169739;55;1138874;-64
2023/08/14 11:53:56;;;;;;;7.58;2.35;;;;;;;30.33;59.94;100855.77;5225037;54;1138816;-65
2023/08/14 11:59:02;;;;;;;2.77;2.20;;;;;;;30.51;61.51;100847.95;5278059;55;1138650;-64
2023/08/14 12:04:08;;;;;;;5.87;3.50;;;;;;;30.51;61.51;100847.95;5258010;54;1138638;-65
2023/08/14 12:09:14;;;;;;;4.78;3.15;;;;;;;30.70;60.51;100859.56;5257973;55;1138650;-64
2023/08/14 12:14:19;;;;;;;4.65;2.80;;;;;;;30.77;59.15;100861.59;5260393;54;1138864;-64
2023/08/14 12:19:27;;;;;;;3.17;2.57;;;;;;;30.79;57.10;100860.81;5169421;55;1138619;-64
2023/08/14 12:24:43;;;;;;;3.62;2.40;;;;;;;30.81;59.00;100866.87;5169408;56;1138596;-65
2023/08/14 12:29:50;;;;;;;3.52;2.40;;;;;;;31.05;55.63;100853.91;5189351;56;1138835;-65
2023/08/14 12:34:56;;;;;;;2.35;2.00;;;;;;;31.18;56.68;100844.60;5185649;55;1138583;-64
2023/08/14 12:40:08;;;;;;;2.75;2.52;;;;;;;31.22;54.89;100851.24;5190046;55;1138724;-64
2023/08/14 12:45:09;;;;;;;6.33;2.40;;;;;;;31.26;52.77;100856.52;5217003;55;1138656;-64
2023/08/14 12:50:15;;;;;;;8.78;2.67;;;;;;;31.28;53.96;100855.73;5126418;55;1138620;-64
2023/08/14 12:55:21;;;;;;;5.87;2.62;;;;;;;31.44;53.48;100863.11;5264345;54;1138678;-65
2023/08/14 13:00:27;;;;;;;5.60;2.30;;;;;;;31.35;52.99;100853.11;5284920;54;1138941;-66
2023/08/14 13:05:32;;;;;;;2.98;2.33;;;;;;;31.43;51.41;100849.16;5288213;54;1138914;-65
2023/08/14 13:10:38;;;;;;;1.98;1.87;;;;;;;31.45;49.82;100856.03;5279308;54;1138641;-64
2023/08/14 13:15:44;;;;;;;2.77;2.10;;;;;;;31.51;49.02;100849.26;5279417;54;1139047;-65
2023/08/14 13:20:49;;;;;;;2.60;2.40;;;;;;;31.55;49.53;100846.33;5299259;54;1138761;-65
2023/08/14 13:25:55;;;;;;;4.75;1.75;;;;;;;31.55;51.36;100853.16;5190598;54;1138759;-65
2023/08/14 13:31:01;;;;;;;1.85;1.75;;;;;;;31.76;50.10;100848.34;5279221;54;1138683;-64
2023/08/14 13:36:06;;;;;;;3.45;2.12;;;;;;;31.80;48.83;100833.89;5286861;55;1138629;-64
2023/08/14 13:41:12;;;;;;;3.10;2.08;;;;;;;31.83;48.36;100826.27;5257047;54;1138729;-65
2023/08/14 13:46:19;;;;;;;3.72;1.96;;;;;;;31.90;47.60;100822.28;5271194;54;1138795;-67
2023/08/14 13:51:25;;;;;;;2.27;1.77;;;;;;;31.94;48.10;100818.48;5205800;55;1138815;-65
2023/08/14 13:56:30;;;;;;;3.37;2.23;;;;;;;32.04;47.58;100809.89;5169833;55;1138959;-65
2023/08/14 14:01:36;;;;;;;2.47;2.20;;;;;;;32.22;48.26;100804.68;5170071;55;1138892;-65
2023/08/14 14:06:41;;;;;;;3.58;1.98;;;;;;;32.11;46.50;100797.36;5188323;55;1138753;-64
2023/08/14 14:11:47;;;;;;;9.08;2.83;;;;;;;32.03;47.59;100801.39;5208466;54;1138833;-64
2023/08/14 14:16:56;;;;;;;4.87;2.20;;;;;;;32.15;47.27;100796.61;5257082;54;1138784;-65
2023/08/14 14:22:03;;;;;;;4.60;1.92;;;;;;;32.30;47.57;100796.00;5279322;54;1138754;-64
2023/08/14 14:27:08;;;;;;;2.50;2.40;;;;;;;32.36;47.60;100790.05;5169084;55;1138860;-65
2023/08/14 14:32:14;;;;;;;4.87;2.27;;;;;;;32.35;46.57;100793.33;5169060;55;1138877;-65
2023/08/14 14:37:20;;;;;;;1.80;1.70;;;;;;;32.39;47.49;100794.45;5189112;55;1138848;-66
2023/08/14 14:42:25;;;;;;;3.77;1.97;;;;;;;32.55;46.94;100795.45;5169095;55;1138865;-64
2023/08/14 14:47:31;;;;;;;4.40;2.56;;;;;;;32.64;46.33;100798.03;5227066;54;1138628;-65
2023/08/14 14:52:37;;;;;;;7.97;2.42;;;;;;;32.56;44.56;100797.11;5201158;55;1138591;-64
2023/08/14 14:57:42;;;;;;;5.12;2.55;;;;;;;32.45;46.09;100791.24;5257301;55;1138703;-65
2023/08/14 15:02:48;;;;;;;2.80;1.98;;;;;;;32.44;45.56;100787.67;5240013;54;1138711;-65
2023/08/14 15:07:53;;;;;;;5.35;2.62;;;;;;;32.40;46.67;100785.16;5189776;55;1138700;-64
2023/08/14 15:12:59;;;;;;;3.45;2.05;;;;;;;32.38;47.92;100789.27;5235800;55;1138784;-65
2023/08/14 15:18:06;;;;;;;3.77;2.02;;;;;;;32.43;49.04;100780.55;5247753;54;1138562;-65
2023/08/14 15:23:11;;;;;;;3.75;2.35;;;;;;;32.53;47.34;100774.38;5194825;55;1138721;-65
2023/08/14 15:28:17;;;;;;;6.95;2.17;;;;;;;32.56;47.36;100770.27;5253916;54;1138614;-65
2023/08/14 15:33:22;;;;;;;2.12;1.80;;;;;;;32.64;46.78;100761.05;5258186;54;1138743;-64
2023/08/14 15:38:28;;;;;;;6.63;2.40;;;;;;;32.68;45.86;100761.38;5264259;54;1138962;-65
2023/08/14 15:43:34;;;;;;;4.93;2.50;;;;;;;32.55;46.03;100774.08;5245727;55;1138633;-65
2023/08/14 15:48:40;;;;;;;3.52;2.12;;;;;;;32.49;46.29;100784.17;5179637;55;1138672;-65
2023/08/14 15:53:45;;;;;;;3.10;2.15;;;;;;;32.39;46.19;100792.25;5048498;56;1138838;-65
2023/08/14 15:58:51;;;;;;;2.87;2.30;;;;;;;32.35;47.03;100789.77;5069268;56;1138871;-65
2023/08/14 16:03:56;;;;;;;4.53;2.35;;;;;;;32.41;46.85;100803.78;5190137;55;1138619;-65
2023/08/14 16:09:03;;;;;;;2.30;1.85;;;;;;;32.32;46.75;100806.16;5189306;55;1138801;-65
2023/08/14 16:14:09;;;;;;;10.48;2.50;;;;;;;32.15;47.79;100826.72;5222108;55;1138702;-64
2023/08/14 16:19:14;;;;;;;11.00;2.27;;;;;;;32.08;49.23;100818.42;5195721;54;1140776;-65
2023/08/14 16:24:20;;;;;;;6.50;2.60;;;;;;;32.09;48.47;100803.09;5189797;55;1140817;-65
2023/08/14 16:29:26;;;;;;;12.00;3.00;;;;;;;32.00;48.68;100798.33;5210563;55;1138832;-64
2023/08/14 16:34:31;;;;;;;6.47;3.50;;;;;;;31.92;49.60;100787.84;5190202;55;1141010;-64
2023/08/14 16:39:37;;;;;;;6.17;2.40;;;;;;;31.84;50.68;100806.86;5248829;54;1139097;-65
2023/08/14 16:44:43;;;;;;;3.55;2.40;;;;;;;31.68;51.30;100818.12;5300287;54;1138651;-65
2023/08/14 16:49:48;;;;;;;4.70;2.83;;;;;;;31.62;53.46;100812.81;5235764;54;1138754;-65
2023/08/14 16:54:54;;;;;;;4.83;2.30;;;;;;;31.54;53.75;100811.31;5201106;55;1138498;-64
2023/08/14 17:00:00;;;;;;;5.15;2.58;;;;;;;31.43;54.33;100806.24;5221362;55;1138937;-65
2023/08/14 17:05:07;;;;;;;7.20;3.22;;;;;;;31.36;54.00;100809.66;5200632;55;1138655;-65
2023/08/14 17:10:12;;;;;;;4.30;3.22;;;;;;;31.36;55.52;100806.94;5268571;54;1138741;-65
2023/08/14 17:15:18;;;;;;;9.88;4.45;;;;;;;31.44;57.86;100794.23;5219462;55;1138598;-65
2023/08/14 17:20:24;;;;;;;10.93;5.78;;;;;;;31.38;58.30;100790.28;5207040;54;1138803;-65
2023/08/14 17:25:29;;;;;;;15.78;5.45;;;;;;;31.31;59.57;100807.41;5278947;54;1140959;-65
2023/08/14 17:30:37;;;;;;;24.40;5.50;;;;;;;31.17;60.18;100784.22;5279140;54;1140912;-65
2023/08/14 17:35:46;;;;;;;17.60;4.92;;;;;;;31.08;61.37;100783.76;5299377;54;1141039;-65
2023/08/14 17:40:52;;;;;;;19.37;4.28;;;;;;;30.86;63.41;100778.74;5279242;54;1140875;-64
2023/08/14 17:45:58;;;;;;;17.07;4.65;;;;;;;30.62;64.64;100783.48;5278593;54;1140959;-64
2023/08/14 17:51:04;;;;;;;25.52;5.37;;;;;;;30.42;66.28;100786.61;5236104;54;1140702;-65
2023/08/14 17:56:10;;;;;;;30.05;5.92;;;;;;;30.23;66.99;100779.70;5220080;54;1140833;-65
2023/08/14 18:01:15;;;;;;;19.07;6.95;;;;;;;30.11;68.25;100769.33;5278220;54;1140754;-65
2023/08/14 18:06:21;;;;;;;20.90;7.08;;;;;;;30.07;68.80;100764.38;5298913;54;1140804;-65
2023/08/14 18:11:26;;;;;;;9.68;4.83;;;;;;;30.08;69.05;100763.31;5235461;54;1140762;-65
2023/08/14 18:16:32;;;;;;;17.68;5.64;;;;;;;30.04;69.80;100764.02;5279302;54;1139175;-64
2023/08/14 18:21:38;;;;;;;16.23;6.62;;;;;;;29.91;70.44;100766.46;5299670;54;1140938;-64
2023/08/14 18:26:43;;;;;;;15.90;5.28;;;;;;;29.74;70.83;100779.17;5279061;54;1140703;-64
2023/08/14 18:31:49;;;;;;;15.63;5.40;;;;;;;29.50;70.70;100775.61;5269727;54;1140674;-65
2023/08/14 18:36:55;;;;;;;8.75;4.65;;;;;;;29.35;71.37;100782.02;5209814;55;1141031;-65
2023/08/14 18:42:02;;;;;;;9.35;4.58;;;;;;;29.27;71.67;100778.30;5189616;55;1138801;-65
2023/08/14 18:47:07;;;;;;;11.60;6.22;;;;;;;29.17;72.10;100795.77;5259293;54;1138817;-64
2023/08/14 18:52:14;;;;;;;16.93;6.05;;;;;;;28.93;72.03;100798.95;5298024;54;1140815;-64
2023/08/14 18:57:19;;;;;;;5.70;3.95;;;;;;;28.89;73.88;100810.01;5265212;54;1140606;-65
2023/08/14 19:02:25;;;;;;;10.70;3.87;;;;;;;28.87;74.95;100810.27;5228717;54;1138635;-66
2023/08/14 19:07:31;;;;;;;9.50;3.92;;;;;;;28.81;75.14;100820.71;5219505;55;1140921;-65
2023/08/14 19:12:36;;;;;;;9.30;5.40;;;;;;;28.68;75.26;100833.13;5279766;54;1138778;-65
2023/08/14 19:17:42;;;;;;;9.03;5.67;;;;;;;28.65;75.63;100831.68;5191328;55;1146114;-65
2023/08/14 19:22:49;;;;;;;20.52;13.13;;;;;;;28.59;75.58;100839.92;5197648;55;1139213;-65
2023/08/14 19:27:55;;;;;;;26.60;16.75;;;;;;;28.54;76.39;100840.63;5291270;54;1143109;-65
2023/08/14 19:33:00;;;;;;;22.58;11.35;;;;;;;28.58;77.14;100850.50;5269040;54;1143142;-66
2023/08/14 19:38:06;;;;;;;14.98;8.80;;;;;;;28.23;77.39;100861.20;5277379;54;1143090;-65
2023/08/14 19:43:12;;;;;;;19.90;11.03;;;;;;;28.01;79.36;100858.89;5300014;54;1140749;-65
2023/08/14 19:48:17;;;;;;;26.12;13.32;;;;;;;28.10;81.20;100853.17;5259644;55;1142788;-64
2023/08/14 19:53:23;;;;;;;21.55;10.80;;;;;;;28.16;81.31;100842.73;5248282;54;1142841;-65
2023/08/14 19:58:28;;;;;;;19.50;9.20;;;;;;;28.14;81.17;100847.03;5234724;55;1143015;-66
2023/08/14 20:03:34;;;;;;;29.60;13.20;;;;;;;28.07;81.90;100849.53;5276050;54;1141040;-65
2023/08/14 20:08:40;;;;;;;26.13;15.13;;;;;;;28.07;82.48;100852.25;5088024;56;1143051;-66
2023/08/14 20:13:45;;;;;;;24.73;13.47;;;;;;;28.03;82.04;100858.66;5198635;55;1142830;-66
2023/08/14 20:18:52;;;;;;;16.70;10.38;;;;;;;27.99;82.36;100864.23;5258005;55;1143230;-65
2023/08/14 20:23:58;;;;;;;18.27;8.38;;;;;;;27.84;81.96;100870.03;5097466;56;1143200;-64
2023/08/14 20:29:03;;;;;;;20.68;8.10;;;;;;;27.78;82.84;100861.44;5253846;55;1140954;-65
2023/08/14 20:34:09;;;;;;;10.25;6.08;;;;;;;27.78;83.11;100855.16;5205671;54;1140799;-65
2023/08/14 20:39:15;;;;;;;17.07;6.33;;;;;;;27.56;81.57;100839.25;5245598;54;1140813;-65
2023/08/14 20:44:20;;;;;;;15.20;5.75;;;;;;;27.39;82.34;100839.99;5257786;54;1140739;-65
2023/08/14 20:49:27;;;;;;;9.00;4.78;;;;;;;27.25;83.23;100836.55;5241496;54;1140691;-67
2023/08/14 20:54:33;;;;;;;13.58;5.35;;;;;;;27.15;83.52;100838.41;5235357;54;1138764;-65
2023/08/14 20:59:40;;;;;;;6.85;5.08;;;;;;;27.02;83.98;100825.45;5120679;55;1140843;-65
2023/08/14 21:04:46;;;;;;;8.43;5.53;;;;;;;26.92;84.69;100828.08;5299714;54;1139050;-64
2023/08/14 21:09:52;;;;;;;18.70;5.15;;;;;;;26.81;85.10;100808.95;5263312;54;1138770;-65
2023/08/14 21:14:58;;;;;;;10.58;4.42;;;;;;;26.66;85.43;100805.17;5201756;55;1140841;-64
2023/08/14 21:20:05;;;;;;;11.88;4.50;;;;;;;26.51;85.56;100792.42;5210020;55;1140720;-65
2023/08/14 21:25:11;;;;;;;8.00;4.85;;;;;;;26.38;85.96;100787.06;5189846;55;1140727;-65
2023/08/14 21:30:17;;;;;;;12.95;4.85;;;;;;;26.24;86.30;100786.26;5213936;54;1138770;-64
2023/08/14 21:35:22;;;;;;;10.58;5.03;;;;;;;26.15;86.42;100778.88;5147496;55;1140818;-64
2023/08/14 21:40:28;;;;;;;6.70;4.65;;;;;;;26.02;87.08;100774.86;5278752;53;1140733;-65
2023/08/14 21:45:33;;;;;;;12.20;4.95;;;;;;;26.01;87.85;100765.06;5279610;54;1138905;-65
2023/08/14 21:50:39;;;;;;;7.57;5.07;;;;;;;26.07;88.84;100762.03;5207462;55;1140920;-65
2023/08/14 21:55:46;;;;;;;12.58;5.12;;;;;;;26.01;88.61;100747.44;5251383;54;1138630;-66
2023/08/14 22:00:51;;;;;;;8.45;5.20;;;;;;;25.92;88.85;100745.50;5111959;56;1172535;-65
2023/08/14 22:06:02;;;;;;;10.18;4.87;;;;;;;25.83;89.48;100750.00;5233710;54;1241506;-64
2023/08/14 22:11:07;;;;;;;15.65;5.60;;;;;;;25.82;90.68;100755.11;5264425;54;1140730;-64
2023/08/14 22:16:14;;;;;;;12.70;5.08;;;;;;;25.82;90.62;100761.36;5112828;56;1140779;-64
2023/08/14 22:21:20;;;;;;;13.83;4.92;;;;;;;25.94;91.52;100772.40;5257516;54;1140757;-65
2023/08/14 22:26:26;;;;;;;14.98;5.58;;;;;;;25.93;90.72;100782.92;5133528;54;1140757;-64
2023/08/14 22:31:32;;;;;;;11.25;6.85;;;;;;;25.83;91.30;100787.41;5215319;55;1140762;-64
2023/08/14 22:36:37;;;;;;;12.18;6.45;;;;;;;25.89;92.38;100788.45;5113403;56;1140772;-65
2023/08/14 22:41:43;;;;;;;13.75;6.05;;;;;;;25.87;91.96;100790.02;5219830;54;1140674;-65
2023/08/14 22:46:48;;;;;;;11.85;5.67;;;;;;;25.78;91.71;100778.28;5255683;54;1241662;-65
2023/08/14 22:51:54;;;;;;;11.05;5.12;;;;;;;25.71;92.30;100784.22;5061600;56;1243566;-65
2023/08/14 22:57:00;;;;;;;19.50;6.22;;;;;;;25.61;92.62;100784.62;5221285;54;1141519;-64
2023/08/14 23:02:05;;;;;;;23.05;6.17;;;;;;;25.57;92.91;100780.15;5198385;54;1189149;-65